sensor_id;sensor_type;location;lat;lon;timestamp;P1;durP1;ratioP1;P2;durP2;ratioP2
793;SDS011;380;48.738;9.214;2023-01-28T00:00:03;5.40;;;4.87;;
793;SDS011;380;48.738;9.214;2023-01-28T00:02:30;6.60;;;4.33;;
793;SDS011;380;48.738;9.214;2023-01-28T00:04:56;5.00;;;3.90;;
793;SDS011;380;48.738;9.214;2023-01-28T00:07:22;5.47;;;4.70;;
793;SDS011;380;48.738;9.214;2023-01-28T00:09:49;5.07;;;3.47;;
793;SDS011;380;48.738;9.214;2023-01-28T00:12:15;7.43;;;4.80;;
793;SDS011;380;48.738;9.214;2023-01-28T00:14:41;5.20;;;4.47;;
793;SDS011;380;48.738;9.214;2023-01-28T00:17:07;4.87;;;3.03;;
793;SDS011;380;48.738;9.214;2023-01-28T00:19:33;10.40;;;5.40;;
793;SDS011;380;48.738;9.214;2023-01-28T00:21:59;7.63;;;5.17;;
793;SDS011;380;48.738;9.214;2023-01-28T00:24:25;6.93;;;5.77;;
793;SDS011;380;48.738;9.214;2023-01-28T00:26:51;8.73;;;5.33;;
793;SDS011;380;48.738;9.214;2023-01-28T00:29:17;6.07;;;5.37;;
793;SDS011;380;48.738;9.214;2023-01-28T00:31:43;5.40;;;3.87;;
793;SDS011;380;48.738;9.214;2023-01-28T00:34:09;6.60;;;4.87;;
793;SDS011;380;48.738;9.214;2023-01-28T00:36:35;3.77;;;3.03;;
793;SDS011;380;48.738;9.214;2023-01-28T00:39:03;6.90;;;4.47;;
793;SDS011;380;48.738;9.214;2023-01-28T00:41:29;4.50;;;2.97;;
793;SDS011;380;48.738;9.214;2023-01-28T00:43:55;6.87;;;5.40;;
793;SDS011;380;48.738;9.214;2023-01-28T00:46:21;5.50;;;3.90;;
793;SDS011;380;48.738;9.214;2023-01-28T00:48:49;6.43;;;5.00;;
793;SDS011;380;48.738;9.214;2023-01-28T00:51:15;5.47;;;4.77;;
793;SDS011;380;48.738;9.214;2023-01-28T00:53:41;5.70;;;5.00;;
793;SDS011;380;48.738;9.214;2023-01-28T00:56:08;6.20;;;3.50;;
793;SDS011;380;48.738;9.214;2023-01-28T00:58:36;6.07;;;5.30;;
793;SDS011;380;48.738;9.214;2023-01-28T01:01:08;4.73;;;3.80;;
793;SDS011;380;48.738;9.214;2023-01-28T01:03:34;4.13;;;3.23;;
793;SDS011;380;48.738;9.214;2023-01-28T01:06:00;5.13;;;4.40;;
793;SDS011;380;48.738;9.214;2023-01-28T01:08:26;3.37;;;2.93;;
793;SDS011;380;48.738;9.214;2023-01-28T01:10:59;6.03;;;3.70;;
793;SDS011;380;48.738;9.214;2023-01-28T01:13:25;4.30;;;3.73;;
793;SDS011;380;48.738;9.214;2023-01-28T01:16:00;4.73;;;3.30;;
793;SDS011;380;48.738;9.214;2023-01-28T01:18:26;3.23;;;2.47;;
793;SDS011;380;48.738;9.214;2023-01-28T01:20:52;4.83;;;4.43;;
793;SDS011;380;48.738;9.214;2023-01-28T01:23:22;6.25;;;4.70;;
793;SDS011;380;48.738;9.214;2023-01-28T01:25:48;5.67;;;4.90;;
793;SDS011;380;48.738;9.214;2023-01-28T01:28:15;6.13;;;4.70;;
793;SDS011;380;48.738;9.214;2023-01-28T01:30:41;6.37;;;5.23;;
793;SDS011;380;48.738;9.214;2023-01-28T01:33:07;4.33;;;3.80;;
793;SDS011;380;48.738;9.214;2023-01-28T01:35:33;7.80;;;4.17;;
793;SDS011;380;48.738;9.214;2023-01-28T01:37:59;5.90;;;4.07;;
793;SDS011;380;48.738;9.214;2023-01-28T01:40:27;8.03;;;3.93;;
793;SDS011;380;48.738;9.214;2023-01-28T01:42:53;4.80;;;4.07;;
793;SDS011;380;48.738;9.214;2023-01-28T01:45:19;6.73;;;5.33;;
793;SDS011;380;48.738;9.214;2023-01-28T01:50:16;6.07;;;2.63;;
793;SDS011;380;48.738;9.214;2023-01-28T01:52:44;6.63;;;4.23;;
793;SDS011;380;48.738;9.214;2023-01-28T01:55:15;4.00;;;3.10;;
793;SDS011;380;48.738;9.214;2023-01-28T01:57:42;8.33;;;5.00;;
793;SDS011;380;48.738;9.214;2023-01-28T02:00:09;4.47;;;3.87;;
793;SDS011;380;48.738;9.214;2023-01-28T02:02:45;5.47;;;3.93;;
793;SDS011;380;48.738;9.214;2023-01-28T02:05:13;6.60;;;5.77;;
793;SDS011;380;48.738;9.214;2023-01-28T02:07:39;4.87;;;3.87;;
793;SDS011;380;48.738;9.214;2023-01-28T02:10:06;7.17;;;3.23;;
793;SDS011;380;48.738;9.214;2023-01-28T02:12:33;8.80;;;4.23;;
793;SDS011;380;48.738;9.214;2023-01-28T02:15:11;4.93;;;3.63;;
793;SDS011;380;48.738;9.214;2023-01-28T02:17:38;4.27;;;2.97;;
793;SDS011;380;48.738;9.214;2023-01-28T02:20:06;6.33;;;4.20;;
793;SDS011;380;48.738;9.214;2023-01-28T02:25:29;6.27;;;4.40;;
793;SDS011;380;48.738;9.214;2023-01-28T02:33:43;9.23;;;3.90;;
793;SDS011;380;48.738;9.214;2023-01-28T02:36:24;3.83;;;3.25;;
793;SDS011;380;48.738;9.214;2023-01-28T02:38:52;4.20;;;3.13;;
793;SDS011;380;48.738;9.214;2023-01-28T02:41:22;3.37;;;2.67;;
793;SDS011;380;48.738;9.214;2023-01-28T02:43:50;6.20;;;3.55;;
793;SDS011;380;48.738;9.214;2023-01-28T02:49:14;6.33;;;4.60;;
793;SDS011;380;48.738;9.214;2023-01-28T02:51:44;5.77;;;4.53;;
793;SDS011;380;48.738;9.214;2023-01-28T02:54:18;6.40;;;4.47;;
793;SDS011;380;48.738;9.214;2023-01-28T02:59:12;3.63;;;2.80;;
793;SDS011;380;48.738;9.214;2023-01-28T03:02:05;4.90;;;3.10;;
793;SDS011;380;48.738;9.214;2023-01-28T03:04:46;4.17;;;3.60;;
793;SDS011;380;48.738;9.214;2023-01-28T03:07:14;6.60;;;3.70;;
793;SDS011;380;48.738;9.214;2023-01-28T03:09:42;5.27;;;3.13;;
793;SDS011;380;48.738;9.214;2023-01-28T03:12:15;4.50;;;4.10;;
793;SDS011;380;48.738;9.214;2023-01-28T03:15:03;4.57;;;3.83;;
793;SDS011;380;48.738;9.214;2023-01-28T03:21:01;5.40;;;3.10;;
793;SDS011;380;48.738;9.214;2023-01-28T03:23:48;5.00;;;3.70;;
793;SDS011;380;48.738;9.214;2023-01-28T03:26:34;4.67;;;3.43;;
793;SDS011;380;48.738;9.214;2023-01-28T03:29:21;5.77;;;3.53;;
793;SDS011;380;48.738;9.214;2023-01-28T03:32:07;5.93;;;4.33;;
793;SDS011;380;48.738;9.214;2023-01-28T03:34:52;5.90;;;4.20;;
793;SDS011;380;48.738;9.214;2023-01-28T03:37:37;4.17;;;3.57;;
793;SDS011;380;48.738;9.214;2023-01-28T03:40:04;5.17;;;4.27;;
793;SDS011;380;48.738;9.214;2023-01-28T03:42:30;8.10;;;3.80;;
793;SDS011;380;48.738;9.214;2023-01-28T03:44:57;4.80;;;4.27;;
793;SDS011;380;48.738;9.214;2023-01-28T03:47:26;5.30;;;4.37;;
793;SDS011;380;48.738;9.214;2023-01-28T03:49:53;3.87;;;2.90;;
793;SDS011;380;48.738;9.214;2023-01-28T03:52:20;4.93;;;4.10;;
793;SDS011;380;48.738;9.214;2023-01-28T03:54:46;9.77;;;5.10;;
793;SDS011;380;48.738;9.214;2023-01-28T03:57:13;6.53;;;5.30;;
793;SDS011;380;48.738;9.214;2023-01-28T03:59:39;7.27;;;4.90;;
793;SDS011;380;48.738;9.214;2023-01-28T04:02:05;7.30;;;4.47;;
793;SDS011;380;48.738;9.214;2023-01-28T04:04:32;5.60;;;3.57;;
793;SDS011;380;48.738;9.214;2023-01-28T04:06:58;6.30;;;5.70;;
793;SDS011;380;48.738;9.214;2023-01-28T04:09:24;7.70;;;5.73;;
793;SDS011;380;48.738;9.214;2023-01-28T04:11:50;5.40;;;4.13;;
793;SDS011;380;48.738;9.214;2023-01-28T04:14:16;9.43;;;4.67;;
793;SDS011;380;48.738;9.214;2023-01-28T04:16:42;5.00;;;4.47;;
793;SDS011;380;48.738;9.214;2023-01-28T04:19:09;6.10;;;5.47;;
793;SDS011;380;48.738;9.214;2023-01-28T04:21:36;7.63;;;4.63;;
793;SDS011;380;48.738;9.214;2023-01-28T04:24:02;4.63;;;3.73;;
793;SDS011;380;48.738;9.214;2023-01-28T04:26:28;7.93;;;5.30;;
793;SDS011;380;48.738;9.214;2023-01-28T04:28:54;6.23;;;4.87;;
793;SDS011;380;48.738;9.214;2023-01-28T04:31:20;6.53;;;4.67;;
793;SDS011;380;48.738;9.214;2023-01-28T04:33:47;4.13;;;3.20;;
793;SDS011;380;48.738;9.214;2023-01-28T04:36:13;5.87;;;4.90;;
793;SDS011;380;48.738;9.214;2023-01-28T04:38:39;5.07;;;4.63;;
793;SDS011;380;48.738;9.214;2023-01-28T04:41:05;7.73;;;5.63;;
793;SDS011;380;48.738;9.214;2023-01-28T04:43:31;4.77;;;3.73;;
793;SDS011;380;48.738;9.214;2023-01-28T04:45:57;6.03;;;5.43;;
793;SDS011;380;48.738;9.214;2023-01-28T04:48:23;4.20;;;3.70;;
793;SDS011;380;48.738;9.214;2023-01-28T04:50:49;7.60;;;4.90;;
793;SDS011;380;48.738;9.214;2023-01-28T04:53:15;6.47;;;4.67;;
793;SDS011;380;48.738;9.214;2023-01-28T04:55:43;7.63;;;5.50;;
793;SDS011;380;48.738;9.214;2023-01-28T04:58:09;6.40;;;5.30;;
793;SDS011;380;48.738;9.214;2023-01-28T05:00:35;7.87;;;6.10;;
793;SDS011;380;48.738;9.214;2023-01-28T05:03:01;7.17;;;6.20;;
793;SDS011;380;48.738;9.214;2023-01-28T05:05:27;7.10;;;5.07;;
793;SDS011;380;48.738;9.214;2023-01-28T05:07:53;8.07;;;5.40;;
793;SDS011;380;48.738;9.214;2023-01-28T05:10:20;7.17;;;5.10;;
793;SDS011;380;48.738;9.214;2023-01-28T05:12:46;7.63;;;5.70;;
793;SDS011;380;48.738;9.214;2023-01-28T05:15:13;8.23;;;6.37;;
793;SDS011;380;48.738;9.214;2023-01-28T05:17:39;7.37;;;6.30;;
793;SDS011;380;48.738;9.214;2023-01-28T05:20:07;6.37;;;5.77;;
793;SDS011;380;48.738;9.214;2023-01-28T05:22:33;6.03;;;5.43;;
793;SDS011;380;48.738;9.214;2023-01-28T05:24:59;5.27;;;4.53;;
793;SDS011;380;48.738;9.214;2023-01-28T05:27:27;5.90;;;5.27;;
793;SDS011;380;48.738;9.214;2023-01-28T05:29:53;7.60;;;5.43;;
793;SDS011;380;48.738;9.214;2023-01-28T05:32:19;5.33;;;4.83;;
793;SDS011;380;48.738;9.214;2023-01-28T05:34:45;6.33;;;5.37;;
793;SDS011;380;48.738;9.214;2023-01-28T05:37:11;10.83;;;7.03;;
793;SDS011;380;48.738;9.214;2023-01-28T05:39:37;5.70;;;4.40;;
793;SDS011;380;48.738;9.214;2023-01-28T05:42:03;5.17;;;4.43;;
793;SDS011;380;48.738;9.214;2023-01-28T05:44:29;5.67;;;4.87;;
793;SDS011;380;48.738;9.214;2023-01-28T05:46:55;10.30;;;6.43;;
793;SDS011;380;48.738;9.214;2023-01-28T05:49:21;6.03;;;5.40;;
793;SDS011;380;48.738;9.214;2023-01-28T05:51:47;10.70;;;7.63;;
793;SDS011;380;48.738;9.214;2023-01-28T05:54:13;8.07;;;6.70;;
793;SDS011;380;48.738;9.214;2023-01-28T05:56:39;6.80;;;4.90;;
793;SDS011;380;48.738;9.214;2023-01-28T05:59:05;8.53;;;6.17;;
793;SDS011;380;48.738;9.214;2023-01-28T06:01:32;4.97;;;4.33;;
793;SDS011;380;48.738;9.214;2023-01-28T06:03:58;9.73;;;6.20;;
793;SDS011;380;48.738;9.214;2023-01-28T06:06:24;16.67;;;6.57;;
793;SDS011;380;48.738;9.214;2023-01-28T06:08:50;7.83;;;5.10;;
793;SDS011;380;48.738;9.214;2023-01-28T06:11:16;6.50;;;4.90;;
793;SDS011;380;48.738;9.214;2023-01-28T06:13:42;8.10;;;6.27;;
793;SDS011;380;48.738;9.214;2023-01-28T06:16:09;5.57;;;4.97;;
793;SDS011;380;48.738;9.214;2023-01-28T06:18:35;7.47;;;6.67;;
793;SDS011;380;48.738;9.214;2023-01-28T06:21:01;8.17;;;5.43;;
793;SDS011;380;48.738;9.214;2023-01-28T06:23:27;7.23;;;6.53;;
793;SDS011;380;48.738;9.214;2023-01-28T06:25:53;7.30;;;6.37;;
793;SDS011;380;48.738;9.214;2023-01-28T06:28:19;7.10;;;4.90;;
793;SDS011;380;48.738;9.214;2023-01-28T06:30:48;8.97;;;7.07;;
793;SDS011;380;48.738;9.214;2023-01-28T06:33:15;7.13;;;5.20;;
793;SDS011;380;48.738;9.214;2023-01-28T06:35:40;7.17;;;5.47;;
793;SDS011;380;48.738;9.214;2023-01-28T06:38:06;6.93;;;6.03;;
793;SDS011;380;48.738;9.214;2023-01-28T06:40:33;4.80;;;3.83;;
793;SDS011;380;48.738;9.214;2023-01-28T06:42:59;8.10;;;5.97;;
793;SDS011;380;48.738;9.214;2023-01-28T06:45:25;7.63;;;5.80;;
793;SDS011;380;48.738;9.214;2023-01-28T06:47:51;6.03;;;5.43;;
793;SDS011;380;48.738;9.214;2023-01-28T06:50:17;5.37;;;4.87;;
793;SDS011;380;48.738;9.214;2023-01-28T06:52:43;5.63;;;4.93;;
793;SDS011;380;48.738;9.214;2023-01-28T06:55:08;8.30;;;6.07;;
793;SDS011;380;48.738;9.214;2023-01-28T06:57:36;6.33;;;4.87;;
793;SDS011;380;48.738;9.214;2023-01-28T07:00:03;7.10;;;5.13;;
793;SDS011;380;48.738;9.214;2023-01-28T07:02:29;6.73;;;5.70;;
793;SDS011;380;48.738;9.214;2023-01-28T07:04:55;7.17;;;6.10;;
793;SDS011;380;48.738;9.214;2023-01-28T07:07:21;7.83;;;6.60;;
793;SDS011;380;48.738;9.214;2023-01-28T07:09:47;7.57;;;6.60;;
793;SDS011;380;48.738;9.214;2023-01-28T07:12:13;6.70;;;5.97;;
793;SDS011;380;48.738;9.214;2023-01-28T07:14:39;7.43;;;5.60;;
793;SDS011;380;48.738;9.214;2023-01-28T07:17:05;9.73;;;6.37;;
793;SDS011;380;48.738;9.214;2023-01-28T07:19:31;10.50;;;5.97;;
793;SDS011;380;48.738;9.214;2023-01-28T07:21:57;7.93;;;7.13;;
793;SDS011;380;48.738;9.214;2023-01-28T07:24:25;6.87;;;6.23;;
793;SDS011;380;48.738;9.214;2023-01-28T07:26:51;6.90;;;6.20;;
793;SDS011;380;48.738;9.214;2023-01-28T07:29:17;6.73;;;5.23;;
793;SDS011;380;48.738;9.214;2023-01-28T07:31:43;6.97;;;5.63;;
793;SDS011;380;48.738;9.214;2023-01-28T07:34:09;4.90;;;4.50;;
793;SDS011;380;48.738;9.214;2023-01-28T07:36:35;8.23;;;5.50;;
793;SDS011;380;48.738;9.214;2023-01-28T07:39:00;4.87;;;4.27;;
793;SDS011;380;48.738;9.214;2023-01-28T07:41:26;7.67;;;6.97;;
793;SDS011;380;48.738;9.214;2023-01-28T07:43:53;7.27;;;5.70;;
793;SDS011;380;48.738;9.214;2023-01-28T07:46:19;8.17;;;5.73;;
793;SDS011;380;48.738;9.214;2023-01-28T07:48:45;9.47;;;7.20;;
793;SDS011;380;48.738;9.214;2023-01-28T07:51:11;9.53;;;6.20;;
793;SDS011;380;48.738;9.214;2023-01-28T07:53:37;7.60;;;6.90;;
793;SDS011;380;48.738;9.214;2023-01-28T07:56:03;7.37;;;6.07;;
793;SDS011;380;48.738;9.214;2023-01-28T07:58:30;8.17;;;6.47;;
793;SDS011;380;48.738;9.214;2023-01-28T08:00:58;9.00;;;6.97;;
793;SDS011;380;48.738;9.214;2023-01-28T08:03:24;5.87;;;4.80;;
793;SDS011;380;48.738;9.214;2023-01-28T08:05:51;8.50;;;7.47;;
793;SDS011;380;48.738;9.214;2023-01-28T08:08:17;10.30;;;8.33;;
793;SDS011;380;48.738;9.214;2023-01-28T08:10:44;10.37;;;6.77;;
793;SDS011;380;48.738;9.214;2023-01-28T08:13:10;13.43;;;7.27;;
793;SDS011;380;48.738;9.214;2023-01-28T08:15:37;8.00;;;6.90;;
793;SDS011;380;48.738;9.214;2023-01-28T08:18:03;7.93;;;7.13;;
793;SDS011;380;48.738;9.214;2023-01-28T08:20:29;8.57;;;7.00;;
793;SDS011;380;48.738;9.214;2023-01-28T08:23:05;9.13;;;6.43;;
793;SDS011;380;48.738;9.214;2023-01-28T08:25:32;10.47;;;7.33;;
793;SDS011;380;48.738;9.214;2023-01-28T08:27:58;8.07;;;7.30;;
793;SDS011;380;48.738;9.214;2023-01-28T08:30:23;10.67;;;8.13;;
793;SDS011;380;48.738;9.214;2023-01-28T08:32:49;8.63;;;5.07;;
793;SDS011;380;48.738;9.214;2023-01-28T08:35:15;11.20;;;6.47;;
793;SDS011;380;48.738;9.214;2023-01-28T08:37:41;7.73;;;6.30;;
793;SDS011;380;48.738;9.214;2023-01-28T08:40:07;7.87;;;6.07;;
793;SDS011;380;48.738;9.214;2023-01-28T08:42:34;8.00;;;6.83;;
793;SDS011;380;48.738;9.214;2023-01-28T08:45:00;8.63;;;7.50;;
793;SDS011;380;48.738;9.214;2023-01-28T08:47:25;6.97;;;5.63;;
793;SDS011;380;48.738;9.214;2023-01-28T08:49:51;8.77;;;6.97;;
793;SDS011;380;48.738;9.214;2023-01-28T08:52:17;9.17;;;7.60;;
793;SDS011;380;48.738;9.214;2023-01-28T08:54:43;9.90;;;8.67;;
793;SDS011;380;48.738;9.214;2023-01-28T08:57:09;9.47;;;7.47;;
793;SDS011;380;48.738;9.214;2023-01-28T08:59:35;9.47;;;6.97;;
793;SDS011;380;48.738;9.214;2023-01-28T09:02:08;8.43;;;7.57;;
793;SDS011;380;48.738;9.214;2023-01-28T09:04:35;7.87;;;6.13;;
793;SDS011;380;48.738;9.214;2023-01-28T09:07:01;7.27;;;5.33;;
793;SDS011;380;48.738;9.214;2023-01-28T09:09:29;8.80;;;7.17;;
793;SDS011;380;48.738;9.214;2023-01-28T09:11:55;7.83;;;6.93;;
793;SDS011;380;48.738;9.214;2023-01-28T09:14:21;8.97;;;8.07;;
793;SDS011;380;48.738;9.214;2023-01-28T09:16:47;9.93;;;8.13;;
793;SDS011;380;48.738;9.214;2023-01-28T09:19:13;7.17;;;6.23;;
793;SDS011;380;48.738;9.214;2023-01-28T09:21:39;10.33;;;8.83;;
793;SDS011;380;48.738;9.214;2023-01-28T09:24:05;10.60;;;7.87;;
793;SDS011;380;48.738;9.214;2023-01-28T09:26:31;11.60;;;7.83;;
793;SDS011;380;48.738;9.214;2023-01-28T09:28:58;10.67;;;8.77;;
793;SDS011;380;48.738;9.214;2023-01-28T09:31:24;11.40;;;8.43;;
793;SDS011;380;48.738;9.214;2023-01-28T09:33:50;8.50;;;5.53;;
793;SDS011;380;48.738;9.214;2023-01-28T09:36:20;8.82;;;7.50;;
793;SDS011;380;48.738;9.214;2023-01-28T09:38:46;11.13;;;9.47;;
793;SDS011;380;48.738;9.214;2023-01-28T09:46:23;9.13;;;6.27;;
793;SDS011;380;48.738;9.214;2023-01-28T09:48:53;9.43;;;8.60;;
793;SDS011;380;48.738;9.214;2023-01-28T09:51:28;10.30;;;7.93;;
793;SDS011;380;48.738;9.214;2023-01-28T09:53:58;10.00;;;8.77;;
793;SDS011;380;48.738;9.214;2023-01-28T09:56:26;10.83;;;7.40;;
793;SDS011;380;48.738;9.214;2023-01-28T09:58:55;9.47;;;7.43;;
793;SDS011;380;48.738;9.214;2023-01-28T10:01:36;10.30;;;6.70;;
793;SDS011;380;48.738;9.214;2023-01-28T10:11:43;15.10;;;8.60;;
793;SDS011;380;48.738;9.214;2023-01-28T10:16:59;17.97;;;8.30;;
793;SDS011;380;48.738;9.214;2023-01-28T10:19:31;13.37;;;8.77;;
793;SDS011;380;48.738;9.214;2023-01-28T10:22:05;9.43;;;8.47;;
793;SDS011;380;48.738;9.214;2023-01-28T10:24:35;12.77;;;7.80;;
793;SDS011;380;48.738;9.214;2023-01-28T10:27:16;8.77;;;7.67;;
793;SDS011;380;48.738;9.214;2023-01-28T10:29:44;10.35;;;7.35;;
793;SDS011;380;48.738;9.214;2023-01-28T10:34:42;9.60;;;7.50;;
793;SDS011;380;48.738;9.214;2023-01-28T10:37:10;12.13;;;8.40;;
793;SDS011;380;48.738;9.214;2023-01-28T10:39:37;12.77;;;8.50;;
793;SDS011;380;48.738;9.214;2023-01-28T10:42:12;9.20;;;7.30;;
793;SDS011;380;48.738;9.214;2023-01-28T10:44:41;7.20;;;6.33;;
793;SDS011;380;48.738;9.214;2023-01-28T10:47:13;9.80;;;7.47;;
793;SDS011;380;48.738;9.214;2023-01-28T10:49:42;11.17;;;8.23;;
793;SDS011;380;48.738;9.214;2023-01-28T10:52:09;9.33;;;7.80;;
793;SDS011;380;48.738;9.214;2023-01-28T10:54:35;13.07;;;9.23;;
793;SDS011;380;48.738;9.214;2023-01-28T10:57:02;8.80;;;7.27;;
793;SDS011;380;48.738;9.214;2023-01-28T10:59:30;10.03;;;6.23;;
793;SDS011;380;48.738;9.214;2023-01-28T11:02:00;14.93;;;8.43;;
793;SDS011;380;48.738;9.214;2023-01-28T11:04:28;10.80;;;8.60;;
793;SDS011;380;48.738;9.214;2023-01-28T11:07:02;12.13;;;7.50;;
793;SDS011;380;48.738;9.214;2023-01-28T11:09:30;10.50;;;7.77;;
793;SDS011;380;48.738;9.214;2023-01-28T11:11:57;14.70;;;9.83;;
793;SDS011;380;48.738;9.214;2023-01-28T11:14:24;8.50;;;7.50;;
793;SDS011;380;48.738;9.214;2023-01-28T11:16:51;13.87;;;9.90;;
793;SDS011;380;48.738;9.214;2023-01-28T11:19:18;13.73;;;10.27;;
793;SDS011;380;48.738;9.214;2023-01-28T11:21:49;8.63;;;7.27;;
793;SDS011;380;48.738;9.214;2023-01-28T11:24:17;11.32;;;8.55;;
793;SDS011;380;48.738;9.214;2023-01-28T11:26:47;9.15;;;7.75;;
793;SDS011;380;48.738;9.214;2023-01-28T11:29:19;10.40;;;8.87;;
793;SDS011;380;48.738;9.214;2023-01-28T11:31:45;10.60;;;9.50;;
793;SDS011;380;48.738;9.214;2023-01-28T11:34:12;13.50;;;7.87;;
793;SDS011;380;48.738;9.214;2023-01-28T11:36:39;9.43;;;7.03;;
793;SDS011;380;48.738;9.214;2023-01-28T11:39:19;11.63;;;8.50;;
793;SDS011;380;48.738;9.214;2023-01-28T11:41:46;9.63;;;8.60;;
793;SDS011;380;48.738;9.214;2023-01-28T11:44:16;13.03;;;9.80;;
793;SDS011;380;48.738;9.214;2023-01-28T11:49:35;23.00;;;8.90;;
793;SDS011;380;48.738;9.214;2023-01-28T12:00:32;10.67;;;7.30;;
793;SDS011;380;48.738;9.214;2023-01-28T12:05:54;10.83;;;6.83;;
793;SDS011;380;48.738;9.214;2023-01-28T12:08:25;10.20;;;7.83;;
793;SDS011;380;48.738;9.214;2023-01-28T12:13:26;10.60;;;8.27;;
793;SDS011;380;48.738;9.214;2023-01-28T12:19:32;10.73;;;8.80;;
793;SDS011;380;48.738;9.214;2023-01-28T12:21:40;9.43;;;6.90;;
793;SDS011;380;48.738;9.214;2023-01-28T12:26:41;11.27;;;6.80;;
793;SDS011;380;48.738;9.214;2023-01-28T12:37:23;15.37;;;7.77;;
793;SDS011;380;48.738;9.214;2023-01-28T12:40:03;15.60;;;11.10;;
793;SDS011;380;48.738;9.214;2023-01-28T12:42:50;9.20;;;7.00;;
793;SDS011;380;48.738;9.214;2023-01-28T12:45:19;10.50;;;7.43;;
793;SDS011;380;48.738;9.214;2023-01-28T12:48:34;10.55;;;6.82;;
793;SDS011;380;48.738;9.214;2023-01-28T12:50:39;11.83;;;8.40;;
793;SDS011;380;48.738;9.214;2023-01-28T12:55:53;10.50;;;9.43;;
793;SDS011;380;48.738;9.214;2023-01-28T12:58:42;10.77;;;9.73;;
793;SDS011;380;48.738;9.214;2023-01-28T13:01:11;11.63;;;7.73;;
793;SDS011;380;48.738;9.214;2023-01-28T13:03:39;10.40;;;9.33;;
793;SDS011;380;48.738;9.214;2023-01-28T13:06:18;13.63;;;8.30;;
793;SDS011;380;48.738;9.214;2023-01-28T13:11:13;6.07;;;4.70;;
793;SDS011;380;48.738;9.214;2023-01-28T13:13:41;10.03;;;8.17;;
793;SDS011;380;48.738;9.214;2023-01-28T13:16:08;8.97;;;7.03;;
793;SDS011;380;48.738;9.214;2023-01-28T13:23:49;10.87;;;7.67;;
793;SDS011;380;48.738;9.214;2023-01-28T13:28:45;7.33;;;5.67;;
793;SDS011;380;48.738;9.214;2023-01-28T13:31:12;8.27;;;7.33;;
793;SDS011;380;48.738;9.214;2023-01-28T13:33:41;10.95;;;7.30;;
793;SDS011;380;48.738;9.214;2023-01-28T13:36:29;8.23;;;6.67;;
793;SDS011;380;48.738;9.214;2023-01-28T13:44:15;5.60;;;5.00;;
793;SDS011;380;48.738;9.214;2023-01-28T13:46:42;5.40;;;4.83;;
793;SDS011;380;48.738;9.214;2023-01-28T13:49:15;6.57;;;4.53;;
793;SDS011;380;48.738;9.214;2023-01-28T13:51:44;8.20;;;5.23;;
793;SDS011;380;48.738;9.214;2023-01-28T13:54:16;7.03;;;4.70;;
793;SDS011;380;48.738;9.214;2023-01-28T14:02:18;5.83;;;4.93;;
793;SDS011;380;48.738;9.214;2023-01-28T14:07:17;6.93;;;6.00;;
793;SDS011;380;48.738;9.214;2023-01-28T14:09:55;5.60;;;5.03;;
793;SDS011;380;48.738;9.214;2023-01-28T14:17:47;8.13;;;5.47;;
793;SDS011;380;48.738;9.214;2023-01-28T14:20:18;5.03;;;4.37;;
793;SDS011;380;48.738;9.214;2023-01-28T14:22:46;9.50;;;6.63;;
793;SDS011;380;48.738;9.214;2023-01-28T14:28:18;7.17;;;5.70;;
793;SDS011;380;48.738;9.214;2023-01-28T14:30:49;3.97;;;3.23;;
793;SDS011;380;48.738;9.214;2023-01-28T14:33:18;11.37;;;4.77;;
793;SDS011;380;48.738;9.214;2023-01-28T14:35:45;6.70;;;4.73;;
793;SDS011;380;48.738;9.214;2023-01-28T14:38:14;7.90;;;6.37;;
793;SDS011;380;48.738;9.214;2023-01-28T14:40:41;7.33;;;5.30;;
793;SDS011;380;48.738;9.214;2023-01-28T14:43:10;5.77;;;5.00;;
793;SDS011;380;48.738;9.214;2023-01-28T14:45:49;7.82;;;4.70;;
793;SDS011;380;48.738;9.214;2023-01-28T14:56:44;5.13;;;3.73;;
793;SDS011;380;48.738;9.214;2023-01-28T14:59:21;6.07;;;4.67;;
793;SDS011;380;48.738;9.214;2023-01-28T15:01:48;6.27;;;4.07;;
793;SDS011;380;48.738;9.214;2023-01-28T15:04:27;5.27;;;4.73;;
793;SDS011;380;48.738;9.214;2023-01-28T15:06:53;5.83;;;5.27;;
793;SDS011;380;48.738;9.214;2023-01-28T15:09:20;4.13;;;3.77;;
793;SDS011;380;48.738;9.214;2023-01-28T15:11:46;4.73;;;3.93;;
793;SDS011;380;48.738;9.214;2023-01-28T15:14:26;5.63;;;5.13;;
793;SDS011;380;48.738;9.214;2023-01-28T15:16:53;7.33;;;5.63;;
793;SDS011;380;48.738;9.214;2023-01-28T15:19:21;6.93;;;4.10;;
793;SDS011;380;48.738;9.214;2023-01-28T15:21:52;5.93;;;4.95;;
793;SDS011;380;48.738;9.214;2023-01-28T15:24:19;8.60;;;5.20;;
793;SDS011;380;48.738;9.214;2023-01-28T15:26:45;5.80;;;4.70;;
793;SDS011;380;48.738;9.214;2023-01-28T15:31:50;4.40;;;4.00;;
793;SDS011;380;48.738;9.214;2023-01-28T15:34:17;5.20;;;4.07;;
793;SDS011;380;48.738;9.214;2023-01-28T15:36:44;5.37;;;4.13;;
793;SDS011;380;48.738;9.214;2023-01-28T15:39:17;6.53;;;3.57;;
793;SDS011;380;48.738;9.214;2023-01-28T15:46:52;5.20;;;4.10;;
793;SDS011;380;48.738;9.214;2023-01-28T15:49:18;4.80;;;3.47;;
793;SDS011;380;48.738;9.214;2023-01-28T15:51:47;6.60;;;3.90;;
793;SDS011;380;48.738;9.214;2023-01-28T15:54:16;7.27;;;5.40;;
793;SDS011;380;48.738;9.214;2023-01-28T15:56:42;4.00;;;2.83;;
793;SDS011;380;48.738;9.214;2023-01-28T16:01:34;5.50;;;2.73;;
793;SDS011;380;48.738;9.214;2023-01-28T16:04:01;7.17;;;3.53;;
793;SDS011;380;48.738;9.214;2023-01-28T16:06:31;6.37;;;4.50;;
793;SDS011;380;48.738;9.214;2023-01-28T16:09:05;5.57;;;4.60;;
793;SDS011;380;48.738;9.214;2023-01-28T16:11:35;4.07;;;3.43;;
793;SDS011;380;48.738;9.214;2023-01-28T16:14:05;6.13;;;4.37;;
793;SDS011;380;48.738;9.214;2023-01-28T16:16:32;7.63;;;5.40;;
793;SDS011;380;48.738;9.214;2023-01-28T16:18:59;5.40;;;3.70;;
793;SDS011;380;48.738;9.214;2023-01-28T16:21:29;4.97;;;3.50;;
793;SDS011;380;48.738;9.214;2023-01-28T16:24:01;4.40;;;3.83;;
793;SDS011;380;48.738;9.214;2023-01-28T16:26:29;3.20;;;2.45;;
793;SDS011;380;48.738;9.214;2023-01-28T16:28:55;3.00;;;2.47;;
793;SDS011;380;48.738;9.214;2023-01-28T16:31:21;5.47;;;4.33;;
793;SDS011;380;48.738;9.214;2023-01-28T16:33:47;4.97;;;3.83;;
793;SDS011;380;48.738;9.214;2023-01-28T16:36:14;7.27;;;4.03;;
793;SDS011;380;48.738;9.214;2023-01-28T16:38:40;4.13;;;3.77;;
793;SDS011;380;48.738;9.214;2023-01-28T16:41:13;4.97;;;3.67;;
793;SDS011;380;48.738;9.214;2023-01-28T16:43:40;4.90;;;3.70;;
793;SDS011;380;48.738;9.214;2023-01-28T16:46:08;5.87;;;3.73;;
793;SDS011;380;48.738;9.214;2023-01-28T16:48:35;6.17;;;4.40;;
793;SDS011;380;48.738;9.214;2023-01-28T16:51:01;7.37;;;5.20;;
793;SDS011;380;48.738;9.214;2023-01-28T16:53:29;5.47;;;4.80;;
793;SDS011;380;48.738;9.214;2023-01-28T16:55:57;7.43;;;4.53;;
793;SDS011;380;48.738;9.214;2023-01-28T16:58:24;7.00;;;4.90;;
793;SDS011;380;48.738;9.214;2023-01-28T17:00:50;3.53;;;2.50;;
793;SDS011;380;48.738;9.214;2023-01-28T17:03:17;6.87;;;4.47;;
793;SDS011;380;48.738;9.214;2023-01-28T17:05:43;5.90;;;4.30;;
793;SDS011;380;48.738;9.214;2023-01-28T17:08:09;6.67;;;5.07;;
793;SDS011;380;48.738;9.214;2023-01-28T17:10:35;5.33;;;3.90;;
793;SDS011;380;48.738;9.214;2023-01-28T17:13:02;8.20;;;5.33;;
793;SDS011;380;48.738;9.214;2023-01-28T17:15:28;5.60;;;3.67;;
793;SDS011;380;48.738;9.214;2023-01-28T17:17:54;6.80;;;4.77;;
793;SDS011;380;48.738;9.214;2023-01-28T17:20:20;4.40;;;3.93;;
793;SDS011;380;48.738;9.214;2023-01-28T17:22:46;5.93;;;4.43;;
793;SDS011;380;48.738;9.214;2023-01-28T17:25:12;7.33;;;3.77;;
793;SDS011;380;48.738;9.214;2023-01-28T17:27:38;7.70;;;4.97;;
793;SDS011;380;48.738;9.214;2023-01-28T17:30:05;4.97;;;3.93;;
793;SDS011;380;48.738;9.214;2023-01-28T17:32:31;3.27;;;2.83;;
793;SDS011;380;48.738;9.214;2023-01-28T17:34:57;5.13;;;4.63;;
793;SDS011;380;48.738;9.214;2023-01-28T17:37:23;7.20;;;5.10;;
793;SDS011;380;48.738;9.214;2023-01-28T17:39:49;5.47;;;4.73;;
793;SDS011;380;48.738;9.214;2023-01-28T17:42:15;5.50;;;4.93;;
793;SDS011;380;48.738;9.214;2023-01-28T17:44:41;5.13;;;3.90;;
793;SDS011;380;48.738;9.214;2023-01-28T17:47:07;9.33;;;6.30;;
793;SDS011;380;48.738;9.214;2023-01-28T17:49:33;6.10;;;4.73;;